x

8452944 - Conimicut Light, Ri (cptr1) Weather Station

7:54 - Thu 18th Dec 2014 All times are EST. -5 hours from GMT.

  • Wind
    11mph, 18mph gusts
  • Sea Temp 45°f
  • Ar Temp 39°f
  • Sea Pressure 1011.2mb
  • 8452944 - Conimicut Light, Ri
  • 8452944 - Conimicut Light, Ri

More Historic Weather Station data

Upgrade to MSW Pro to gain access to the past 30 days of data for over 8000 Wavebouys and Weather Stations around the globe.

Join Pro

Comparision Forecast

View Surf forecast
   
Qui 12/18 7:54 11 18 mph 1011.2mb 45f 39f
7:48 14 17 mph 1011.5mb 45f 39f
7:42 15 18 mph 1011.6mb 45f 39f
7:36 15 17 mph 1011.6mb 45f 39f
7:30 14 16 mph 1011.6mb 45f 39f
7:24 14 20 mph 1011.5mb 45f 39f
7:12 16 18 mph 1011.8mb 45f 39f
7:06 11 14 mph 1011.8mb 45f 39f
7:00 14 16 mph 1011.9mb 45f 39f
6:54 13 16 mph 1011.9mb 45f 39f
6:48 11 15 mph 1011.9mb 45f 39f
6:42 11 17 mph 1011.8mb 45f 39f
6:36 14 16 mph 1011.8mb 45f 39f
6:30 15 17 mph 1011.7mb 45f 39f
6:24 15 18 mph 1011.7mb 45f 39f
6:18 17 21 mph 1011.7mb 45f 39f
6:12 17 20 mph 1011.7mb 45f 39f
6:06 16 18 mph 1011.6mb 45f 39f
6:00 14 18 mph 1011.4mb 45f 39f
5:54 15 20 mph 1011.2mb 45f 39f
5:48 17 21 mph 1011.1mb 45f 40f
5:42 17 21 mph 1011mb 45f 39f
5:36 14 20 mph 1011mb 45f 40f
5:30 17 20 mph 1011mb 45f 40f
5:18 17 20 mph 1011mb 45f 40f
5:12 15 20 mph 1010.9mb 45f 40f
5:06 18 22 mph 1010.7mb 45f 40f
5:00 16 20 mph 1010.7mb 45f 40f
4:54 14 18 mph 1010.7mb 45f 40f
4:48 13 15 mph 1010.7mb 45f 40f
4:42 13 18 mph 1010.6mb 45f 41f
4:36 14 18 mph 1010.6mb 45f 41f
4:30 14 17 mph 1010.6mb 45f 41f
4:24 15 20 mph 1010.5mb 45f 41f
4:18 17 22 mph 1010.3mb 45f 41f
4:12 15 20 mph 1010.3mb 45f 41f
4:06 15 18 mph 1010.2mb 45f 41f
4:00 14 17 mph 1010.1mb 45f 41f
3:54 16 20 mph 1010.1mb 45f 41f
3:48 16 20 mph 1010mb 45f 41f
3:42 15 18 mph 1010mb 45f 41f
3:36 13 21 mph 1009.9mb 45f 41f
3:30 16 18 mph 1009.6mb 45f 41f
3:24 16 22 mph 1009.8mb 45f 41f
3:18 17 23 mph 1009.7mb 45f 41f
3:12 21 24 mph 1009.7mb 46f 41f
3:06 16 22 mph 1009.7mb 46f 41f
3:00 16 21 mph 1009.8mb 45f 41f
2:54 21 24 mph 1009.5mb 45f 41f
2:48 18 24 mph 1009.5mb 45f 41f
2:42 22 24 mph 1009.4mb 45f 41f
2:30 21 25 mph 1009.4mb 45f 41f
2:24 22 25 mph 1009.4mb 45f 41f
2:18 21 24 mph 1009.2mb 45f 41f
2:12 17 22 mph 1009.2mb 45f 41f
2:06 17 22 mph 1009.1mb 45f 41f
2:00 20 24 mph 1009.1mb 45f 41f
1:54 22 26 mph 1009mb 45f 41f
1:48 24 28 mph 1009mb 45f 41f
1:42 24 29 mph 1008.8mb 45f 41f
1:36 21 25 mph 1008.8mb 45f 41f
1:30 24 28 mph 1008.7mb 45f 41f
1:24 23 25 mph 1008.8mb 45f 41f
1:18 21 28 mph 1008.9mb 45f 41f
1:12 24 30 mph 1008.8mb 45f 41f
1:06 24 28 mph 1008.9mb 45f 41f
1:00 23 30 mph 1008.9mb 45f 41f
12:54 24 30 mph 1008.9mb 45f 41f
12:48 24 29 mph 1008.8mb 45f 41f
12:42 24 29 mph 1008.9mb 45f 41f
12:36 25 30 mph 1008.9mb 45f 41f
12:30 25 30 mph 1008.8mb 45f 41f
12:24 29 32 mph 1009mb 45f 40f
12:18 26 30 mph 1009.1mb 45f 41f
12:06 24 29 mph 1009.3mb 44f 41f
12:00 24 29 mph 1009.3mb 44f 41f
11:54 25 31 mph 1009.4mb 44f 41f
11:48 26 30 mph 1009.5mb 44f 41f
11:42 24 29 mph 1009.3mb 44f 41f
11:36 24 29 mph 1009.3mb 44f 41f
11:30 25 30 mph 1009.3mb 44f 41f
11:24 21 26 mph 1009.2mb 44f 41f
11:18 21 31 mph 1009.4mb 44f 41f
11:12 25 29 mph 1009.3mb 44f 41f
11:06 22 26 mph 1009.3mb 44f 41f
11:00 21 28 mph 1009.4mb 44f 41f
10:54 23 30 mph 1009.3mb 44f 41f
10:48 31 33 mph 1009.3mb 44f 41f
10:42 26 33 mph 1009.4mb 44f 41f
10:36 31 33 mph 1009.4mb 44f 41f
10:30 24 31 mph 1009.5mb 44f 41f
10:24 21 29 mph 1009.6mb 44f 41f
10:18 24 31 mph 1009.6mb 44f 41f
10:12 23 31 mph 1009.6mb 44f 41f
10:06 23 30 mph 1009.7mb 44f 41f
10:00 21 26 mph 1009.7mb 44f 41f
9:54 22 30 mph 1009.7mb 44f 40f
9:48 25 33 mph 1009.7mb 44f 40f
9:42 22 28 mph 1009.7mb 44f 40f
9:36 22 29 mph 1009.7mb 44f 40f
9:30 22 25 mph 1009.7mb 44f 40f
9:24 21 28 mph 1009.6mb 44f 40f
9:18 20 28 mph 1009.6mb 44f 40f
9:06 21 30 mph 1009.6mb 44f 39f
9:00 22 28 mph 1009.6mb 44f 39f
8:54 22 31 mph 1009.4mb 44f 39f
8:48 24 29 mph 1009.2mb 44f 38f
8:42 22 28 mph 1009.3mb 44f 38f
8:36 20 25 mph 1009.3mb 44f 39f
8:30 20 25 mph 1009.2mb 44f 38f
8:24 17 26 mph 1009.2mb 44f 38f
8:18 21 28 mph 1009.1mb 44f 38f
8:12 18 29 mph 1009.1mb 44f 38f
8:06 17 23 mph 1008.9mb 44f 38f
8:00 21 25 mph 1009mb 44f 38f
7:54 22 31 mph 1008.8mb 44f 38f
7:48 18 23 mph 1008.7mb 44f 38f
7:42 21 26 mph 1008.7mb 44f 38f
7:36 21 25 mph 1008.6mb 44f 38f
7:30 18 22 mph 1008.5mb 44f 37f
7:24 18 22 mph 1008.6mb 44f 37f
7:18 18 24 mph 1008.6mb 44f 37f
7:12 21 26 mph 1008.6mb 44f 37f
7:06 21 24 mph 1008.7mb 44f 37f
7:00 18 25 mph 1008.6mb 44f 38f
6:54 18 24 mph 1008.6mb 44f 38f
6:48 21 26 mph 1008.4mb 44f 38f
6:42 21 29 mph 1008.3mb 44f 38f
6:36 21 25 mph 1008.4mb 44f 38f
6:30 21 26 mph 1008.4mb 44f 38f
6:24 23 29 mph 1008.4mb 44f 38f
6:18 23 29 mph 1008.4mb 44f 39f
6:12 21 28 mph 1008.2mb 45f 39f
6:06 24 28 mph 1008.3mb 45f 39f
6:00 23 30 mph 1008.2mb 45f 39f
5:54 17 24 mph 1008.1mb 45f 40f
5:48 22 26 mph 1008mb 45f 40f
5:42 24 28 mph 1008mb 45f 40f
5:36 18 24 mph 1007.9mb 45f 40f
5:30 21 26 mph 1007.9mb 45f 40f
5:24 18 22 mph 1007.8mb 45f 40f
5:18 20 24 mph 1007.8mb 45f 40f
5:12 15 23 mph 1007.8mb 45f 40f
5:06 16 20 mph 1007.8mb 45f 40f
5:00 15 17 mph 1007.8mb 45f 40f
4:54 13 16 mph 1007.8mb 45f 40f
4:48 10 18 mph 1007.8mb 45f 40f
4:42 11 16 mph 1007.8mb 45f 40f
4:36 13 17 mph 1007.7mb 45f 40f
4:30 14 18 mph 1007.7mb 45f 40f
4:24 14 18 mph 1007.7mb 45f 40f
4:18 14 17 mph 1007.7mb 45f 40f
4:12 14 16 mph 1007.7mb 45f 40f
4:06 11 16 mph 1007.6mb 45f 40f
4:00 11 15 mph 1007.6mb 45f 40f
3:54 15 21 mph 1007.6mb 45f 40f
3:48 14 20 mph 1007.6mb 45f 40f
3:42 15 21 mph 1007.5mb 45f 40f
3:36 18 21 mph 1007.3mb 45f 40f
3:30 15 18 mph 1007.2mb 45f 40f
3:24 15 17 mph 1007.2mb 45f 40f
3:18 14 15 mph 1007.2mb 45f 40f
3:12 14 16 mph 1007.4mb 45f 40f
3:06 10 14 mph 1007.4mb 45f 40f
3:00 14 16 mph 1007.5mb 45f 40f
2:54 11 17 mph 1007.5mb 45f 39f
2:48 13 14 mph 1007.6mb 45f 39f
2:42 11 16 mph 1007.6mb 45f 39f
2:36 13 16 mph 1007.6mb 45f 39f
2:30 13 16 mph 1007.7mb 45f 39f
2:24 13 18 mph 1007.8mb 45f 39f
2:18 13 16 mph 1007.8mb 45f 39f
2:12 15 17 mph 1007.8mb 45f 39f
2:06 15 18 mph 1007.7mb 45f 39f
2:00 15 17 mph 1007.7mb 45f 39f
1:54 16 20 mph 1007.7mb 45f 39f
1:48 16 21 mph 1007.7mb 45f 39f
1:36 16 20 mph 1007.5mb 45f 39f
1:30 18 22 mph 1007.5mb 45f 39f
1:24 17 22 mph 1007.5mb 45f 39f
1:18 17 22 mph 1007.6mb 45f 39f
1:12 16 20 mph 1007.6mb 45f 39f
1:06 14 16 mph 1007.5mb 45f 40f
1:00 11 18 mph 1007.6mb 45f 40f
12:54 15 20 mph 1007.6mb 45f 40f
12:48 15 22 mph 1007.6mb 45f 40f
12:42 16 22 mph 1007.7mb 45f 40f
12:36 14 18 mph 1007.7mb 45f 40f
12:30 14 21 mph 1007.7mb 45f 40f
12:24 14 18 mph 1007.8mb 45f 41f
12:18 17 20 mph 1007.7mb 45f 41f
12:12 16 20 mph 1007.7mb 45f 41f
12:06 15 20 mph 1007.7mb 45f 41f
12:00 14 18 mph 1007.7mb 45f 41f
Qua 12/17 11:54 16 21 mph 1007.6mb 45f 42f
11:48 17 21 mph 1007.6mb 45f 42f
11:36 16 20 mph 1007.6mb 45f 42f
11:30 14 17 mph 1007.6mb 45f 42f
11:24 15 18 mph 1007.6mb 45f 42f
11:18 15 17 mph 1007.6mb 45f 42f
11:12 14 18 mph 1007.7mb 45f 42f
11:06 11 17 mph 1007.7mb 45f 42f
11:00 11 16 mph 1007.8mb 45f 43f
10:54 7 11 mph 1007.9mb 45f 43f
10:48 9 14 mph 1007.9mb 45f 43f
10:42 14 18 mph 1008mb 45f 43f
10:36 14 17 mph 1008mb 45f 43f
10:30 14 21 mph 1008.1mb 45f 43f
10:24 16 21 mph 1008mb 45f 43f
10:18 21 24 mph 1008mb 45f 43f
10:12 17 20 mph 1008.2mb 45f 43f
10:06 15 18 mph 1007.9mb 45f 44f
10:00 11 14 mph 1007.9mb 45f 44f
9:54 10 16 mph 1007.8mb 45f 44f
9:42 16 24 mph 1007.7mb 45f 44f
9:36 21 22 mph 1007.6mb 45f 44f
9:30 18 23 mph 1007.6mb 45f 44f
9:24 17 22 mph 1007.6mb 45f 44f
9:18 16 21 mph 1007.6mb 45f 44f
9:12 21 23 mph 1007.6mb 45f 44f
9:06 24 26 mph 1007.5mb 45f 45f
9:00 24 26 mph 1007.5mb 45f 45f
8:54 22 24 mph 1007.6mb 45f 45f
8:48 21 23 mph 1007.6mb 45f 45f
8:42 20 23 mph 1007.7mb 45f 45f
8:36 18 22 mph 1007.7mb 45f 45f
8:30 14 21 mph 1007.7mb 45f 46f
8:24 16 22 mph 1007.5mb 45f 46f
8:18 15 18 mph 1007.6mb 45f 46f
8:12 14 17 mph 1007.6mb 45f 46f
8:06 14 22 mph 1007.7mb 45f 46f
8:00 14 18 mph 1007.8mb 45f 46f
7:54 9 14 mph 1007.7mb 45f 46f
7:48 9 13 mph 1007.7mb 45f 46f
7:42 13 15 mph 1007.7mb 45f 46f
7:36 15 17 mph 1007.6mb 45f 47f
7:30 13 16 mph 1007.6mb 45f 47f
7:24 16 18 mph 1007.6mb 45f 47f
7:18 16 18 mph 1007.6mb 45f 47f
7:12 16 20 mph 1007.5mb 45f 47f
7:06 17 20 mph 1007.5mb 45f 47f
7:00 15 16 mph 1007.6mb 45f 47f
6:54 13 16 mph 1007.7mb 45f 47f
6:48 14 21 mph 1007.7mb 45f 47f
6:42 21 23 mph 1007.7mb 45f 47f
6:30 15 20 mph 1007.8mb 45f 47f
6:24 17 21 mph 1007.7mb 45f 47f
6:18 18 22 mph 1007.7mb 45f 47f
6:12 18 22 mph 1007.7mb 45f 48f
6:06 14 20 mph 1007.6mb 45f 47f
6:00 14 17 mph 1007.5mb 45f 47f
5:54 9 14 mph 1007.5mb 45f 47f
5:48 11 15 mph 1007.5mb 45f 47f
5:42 13 15 mph 1007.4mb 45f 47f
5:36 14 20 mph 1007.4mb 45f 47f
5:30 17 21 mph 1007.3mb 45f 48f
5:24 15 17 mph 1007.3mb 45f 48f
5:18 13 16 mph 1007.2mb 45f 48f
5:12 11 15 mph 1007.2mb 45f 47f
5:06 13 15 mph 1007.1mb 45f 48f
5:00 14 16 mph 1007mb 45f 48f
4:54 13 14 mph 1006.9mb 45f 48f
4:48 11 14 mph 1006.9mb 45f 48f
4:42 14 20 mph 1006.9mb 45f 48f
4:36 16 22 mph 1006.8mb 45f 48f
4:30 20 22 mph 1006.8mb 45f 48f
4:24 14 18 mph 1006.9mb 45f 48f
4:18 15 17 mph 1006.8mb 45f 48f
4:12 16 18 mph 1006.8mb 45f 49f
4:06 16 21 mph 1006.7mb 45f 48f
4:00 16 20 mph 1006.6mb 45f 49f
3:54 16 22 mph 1006.5mb 45f 49f
3:48 18 22 mph 1006.5mb 45f 49f
3:42 20 25 mph 1006.4mb 45f 49f
3:36 18 21 mph 1006.3mb 45f 49f
3:30 22 25 mph 1006.2mb 45f 49f
3:24 18 23 mph 1006.1mb 45f 49f
3:18 20 23 mph 1006mb 45f 49f
3:12 17 25 mph 1006mb 45f 48f
3:06 18 22 mph 1006mb 45f 48f
3:00 20 22 mph 1005.9mb 45f 48f
2:48 20 25 mph 1005.9mb 45f 48f
2:42 22 26 mph 1005.9mb 45f 48f
2:36 21 24 mph 1005.8mb 45f 48f
2:30 22 24 mph 1005.8mb 45f 48f
2:18 21 28 mph 1005.9mb 45f 48f
2:12 25 32 mph 1005.8mb 45f 48f
2:06 25 30 mph 1005.8mb 45f 48f
2:00 21 25 mph 1005.9mb 45f 48f
1:54 22 25 mph 1005.6mb 45f 49f
1:48 22 26 mph 1005.6mb 45f 49f
1:42 22 24 mph 1005.5mb 45f 49f
1:36 17 21 mph 1005.5mb 45f 49f
1:30 16 20 mph 1005.4mb 45f 49f
1:24 14 17 mph 1005.4mb 44f 49f
1:18 15 20 mph 1005.4mb 44f 48f
1:12 14 17 mph 1005.5mb 44f 47f
1:00 18 24 mph 1005.4mb 44f 47f
12:54 18 22 mph 1005.4mb 44f 47f
12:48 20 21 mph 1005.6mb 44f 47f
12:42 18 20 mph 1005.7mb 44f 47f
12:36 18 21 mph 1005.6mb 44f 47f
12:30 17 21 mph 1005.7mb 44f 47f
12:24 18 23 mph 1005.7mb 44f 47f
12:18 17 20 mph 1005.8mb 44f 46f
12:12 17 21 mph 1005.9mb 44f 46f
12:06 13 16 mph 1006.1mb 44f 46f
12:00 11 14 mph 1006.1mb 44f 46f
11:54 11
mph
1006.2mb 44f 45f
11:48 11 14 mph 1006.3mb 44f 45f
11:42 13 14 mph 1006.3mb 44f 45f
11:36 13 14 mph 1006.3mb 44f 45f
11:30 11 14 mph 1006.2mb 44f 45f
11:24 13 14 mph 1006.3mb 44f 45f
11:12 11 14 mph 1006.4mb 44f 44f
11:06 11 13 mph 1006.6mb 44f 44f
11:00 11 14 mph 1006.6mb 44f 44f
10:54 13 15 mph 1006.6mb 44f 44f
10:48 15 16 mph 1006.8mb 44f 44f
10:42 11 13 mph 1006.8mb 44f 44f
10:36 10 11 mph 1006.9mb 44f 43f
10:30 10 11 mph 1007mb 44f 43f
10:24 10 11 mph 1007mb 43f 43f
10:18 9 11 mph 1007.1mb 43f 43f
10:12 10 11 mph 1007.2mb 43f 43f
10:06 10 11 mph 1007.3mb 43f 43f
10:00 11 13 mph 1007.4mb 43f 43f
9:54 10 13 mph 1007.4mb 43f 43f
9:48 14 15 mph 1007.4mb 43f 42f
8:48 16 17 mph 1007mb 43f 42f
8:06 14 15 mph 1007mb 43f 41f
8:00 11 14 mph 1007mb 43f 41f
7:42 11 14 mph 1007mb 43f 41f
7:24 11 13 mph 1006.9mb 43f 41f
7:18 10 11 mph 1006.9mb 43f 42f
7:12 9 11 mph 1007mb 43f 42f
7:06 10
mph
1007mb 43f 42f
6:54 10 13 mph 1007mb 43f 42f
6:42 9 10 mph 1007mb 43f 42f
6:36 9 11 mph 1007mb 43f 42f
6:30 11 13 mph 1006.9mb 43f -
6:24 13
mph
1006.9mb 43f -
6:18 11 13 mph 1007mb 43f 42f
6:12 10 13 mph 1007.2mb 43f 42f
6:00 11 13 mph 1007.1mb 44f 42f
5:54 13 14 mph 1007.1mb 44f 42f
5:48 11 14 mph 1007.2mb 44f 42f
5:42 14
mph
1007.1mb 44f 42f
5:36 10 11 mph 1007.1mb 44f 42f
5:30 10 13 mph 1007.1mb 44f 42f
5:24 10 13 mph 1007.1mb 44f 42f
5:18 11 13 mph 1007.1mb 45f 42f
5:12 14
mph
1007.2mb 45f 42f
5:06 13
mph
1007.3mb 45f 42f
5:00 10 11 mph 1007.4mb 45f 42f
4:54 9 10 mph 1007.5mb 45f 42f
4:48 9 13 mph 1007.5mb 45f 42f
4:42 11 14 mph 1007.5mb 45f 42f
4:36 13 14 mph 1007.4mb 45f 42f
4:30 11 13 mph 1007.5mb 45f 42f
4:24 10 11 mph 1007.6mb 45f 42f
4:18 10 13 mph 1007.7mb 45f 42f
4:12 10 14 mph 1007.7mb 45f 42f
4:06 11 14 mph 1007.8mb 45f 42f
4:00 15 17 mph 1007.6mb 45f 42f
3:54 15 16 mph 1007.7mb 45f 42f
3:48 13
mph
1008mb 45f 42f
3:42 11 14 mph 1008.3mb 45f 42f
3:36 13 14 mph 1008.3mb 45f 42f
3:30 14 16 mph 1008.5mb 45f 42f
3:24 16 18 mph 1008.4mb 45f 42f
3:18 17 18 mph 1008.6mb 45f 42f
3:12 11 13 mph 1008.8mb 45f 42f
3:06 11 13 mph 1008.8mb 45f 42f
3:00 10 11 mph 1008.9mb 45f 42f
2:54 10 14 mph 1008.9mb 45f 42f
2:48 11 13 mph 1008.9mb 45f 42f
2:42 11 13 mph 1009.1mb 45f 42f
2:30 10 11 mph 1009.5mb 45f 42f
2:24 10 11 mph 1009.5mb 45f 42f
2:18 8 9 mph 1009.8mb 45f 42f
2:12 7 8 mph 1009.9mb 45f 42f
2:06 6 8 mph 1009.8mb 45f 42f
2:00 7 8 mph 1009.8mb 45f 42f
1:54 8 10 mph 1009.9mb 45f 42f
1:48 10 11 mph 1009.9mb 44f 42f
1:42 10 13 mph 1010.1mb 44f 42f
1:36 13 15 mph 1010.2mb 44f 42f
1:30 13 14 mph 1010.2mb 44f 42f
1:24 13 14 mph 1010.5mb 44f 42f
1:18 11 13 mph 1010.7mb 44f 42f
1:12 13 14 mph 1010.9mb 44f 42f
1:06 10 11 mph 1010.9mb 44f 42f
1:00 9 10 mph 1011.2mb 44f 42f
12:54 9 11 mph 1011.2mb 44f 42f
12:48 10 11 mph 1011.3mb 44f 42f
12:42 9 10 mph 1011.5mb 44f 42f
12:36 7 8 mph 1011.7mb 44f 42f
12:30 8
mph
1011.8mb 44f 42f
12:24 8 9 mph 1011.8mb 44f 42f
12:18 8 10 mph 1012mb 44f 42f
12:12 9 10 mph 1012.1mb 44f 42f
12:00 7 11 mph 1012.3mb 44f 42f
Ter 12/16 11:54 8 10 mph 1012.2mb 44f 42f
11:48 9 11 mph 1012.1mb 44f 42f
11:42 10 11 mph 1012.3mb 44f 42f
11:36 10 13 mph 1012.2mb 44f 42f
11:30 11
mph
1012.3mb 44f 42f
11:24 7 9 mph 1012.5mb 44f 42f
11:18 6 7 mph 1012.8mb 44f 42f
11:12 7 9 mph 1012.6mb 43f 42f
11:06 9 10 mph 1012.4mb 43f 42f
11:00 8 9 mph 1012.6mb 43f 42f
10:54 8 10 mph 1012.8mb 43f 42f
10:48 8 10 mph 1012.9mb 43f 41f
10:42 9 10 mph 1012.9mb 43f 41f
10:36 10 13 mph 1013mb 43f 41f
10:30 9 11 mph 1013.2mb 43f 42f
10:24 7 9 mph 1013.5mb 43f 41f
10:18 7 9 mph 1013.6mb 43f 41f
10:12 7 8 mph 1013.6mb 43f 41f
10:06 7 8 mph 1013.8mb 43f 41f
9:54 7 9 mph 1013.9mb 43f 41f
9:48 8 9 mph 1013.9mb 43f 41f
9:42 8 10 mph 1014mb 43f 41f
9:36 8 9 mph 1014mb 43f 41f
9:30 7 8 mph 1014.2mb - 41f
9:24 7 8 mph 1014.4mb - 41f
9:18 7 8 mph 1014.5mb 43f 41f
9:06 7
mph
1014.6mb 43f 41f
9:00 6 8 mph 1014.6mb 43f 41f
8:54 7 8 mph 1014.7mb 43f 41f
8:48 7 8 mph 1014.7mb 43f 41f
8:42 8
mph
1014.9mb 43f 41f
8:36 8
mph
1014.9mb 43f 41f
8:30 7 8 mph 1015mb 43f 41f
8:24 7 8 mph 1015.1mb 43f 41f
8:18 7 8 mph 1015mb 43f 41f
8:06 8
mph
1015.1mb 43f 41f
8:00 7
mph
1015.2mb 43f 41f
7:54 6
mph
1015.2mb 43f 41f
7:48 5 6 mph 1015.3mb 43f 41f
7:42 3 5 mph 1015.2mb 43f 41f
7:36 6 7 mph 1015.1mb 43f 41f
7:30 7 8 mph 1014.9mb 43f 41f
7:24 5 7 mph 1015.2mb 43f 41f
7:18 7
mph
1015.3mb 43f 41f
7:12 6 7 mph 1015.5mb 43f 41f
7:06 5
mph
1015.8mb 43f 41f
7:00 3 5 mph 1015.9mb 43f 41f
6:54 3 5 mph 1015.9mb 43f 41f
6:48 5 6 mph 1015.9mb 43f 41f
6:42 5 6 mph 1015.9mb 43f 41f
6:30 6 7 mph 1015.9mb 43f 41f
6:24 6
mph
1016mb 43f 41f
6:18 5 7 mph 1016.3mb 43f 41f
6:12 6 8 mph 1016.3mb 43f 41f
6:06 7
mph
1016.3mb 43f 41f
6:00 7 8 mph 1016.3mb 43f 41f
5:54 7 8 mph 1016.4mb 43f 41f
5:48 6 7 mph 1016.5mb 43f 41f
5:42 6 7 mph 1016.6mb 43f 41f
5:36 5
mph
1016.9mb 43f 41f
5:30 2 3 mph 1017.1mb 44f 41f
5:24 3 5 mph 1017.1mb 44f 41f
5:18 5 6 mph 1017.1mb 44f 41f
5:12 5
mph
1017mb 44f 41f
5:06 5 6 mph 1017.2mb 44f 41f
5:00 5 6 mph 1017.1mb 44f 41f
4:54 6
mph
1017.1mb 44f 41f
4:48 3 5 mph 1017.2mb 44f 41f
4:42 5 6 mph 1017.2mb 44f 41f
4:36 5 6 mph 1017.1mb 44f 41f
4:30 5 6 mph 1017.1mb 44f 41f
4:24 5 6 mph 1017.2mb 44f 41f
4:18 5 6 mph 1017.4mb 44f 41f
4:12 5 6 mph 1017.5mb 44f 41f
4:06 6
mph
1017.7mb 44f 41f
4:00 5
mph
1017.7mb 44f 41f
3:54 6
mph
1017.8mb 44f 41f
3:48 5 6 mph 1017.9mb 44f 41f
3:42 5
mph
1017.9mb 44f 41f
3:36 5
mph
1017.9mb 44f 41f
3:30 3
mph
1017.7mb 44f 41f
3:24 3 5 mph 1017.7mb 44f 41f
3:18 5
mph
1017.6mb 44f 41f
3:12 3 5 mph 1017.7mb 44f 41f
3:00 3
mph
1017.8mb 44f 41f
2:54 2 3 mph 1017.9mb 44f 41f
2:48 2 3 mph 1017.8mb 44f 41f
2:42 2 3 mph 1017.8mb 44f 41f
2:36 2 5 mph 1017.8mb 45f 41f
2:30 3 5 mph 1017.8mb 45f 41f
2:24 3 5 mph 1017.8mb 45f 41f
2:18 5 6 mph 1017.8mb 45f 41f
2:12 5 6 mph 1017.8mb 45f 40f
2:06 3 5 mph 1017.9mb 45f 40f
2:00 5
mph
1018mb 45f 40f
1:54 3 5 mph 1018mb 45f 40f
1:48 3 5 mph 1018mb 45f 40f
1:42 5
mph
1018mb 45f 40f
1:36 2 3 mph 1018.2mb 45f 40f
1:30 3 5 mph 1018.2mb 45f 40f
1:24 5
mph
1018.1mb 45f 40f
1:18 3 5 mph 1018.1mb 45f 40f
1:12 3 5 mph 1018.2mb 45f 40f
1:06 3 5 mph 1018.4mb 45f 40f
1:00 3 5 mph 1018.5mb 44f 40f
12:54 3 5 mph 1018.6mb 44f 40f
12:48 3 5 mph 1018.7mb 44f 40f
12:42 5
mph
1018.8mb 44f 40f
12:36 5 6 mph 1018.9mb 44f 39f
12:30 6
mph
1018.9mb 44f 39f
12:24 5 6 mph 1019mb 44f 39f
12:18 6 7 mph 1019mb 44f 39f
12:12 6
mph
1019.1mb 44f 39f
12:06 3 6 mph 1019.1mb 44f 39f
12:00 6
mph
1019.2mb 44f 39f
11:54 5 6 mph 1019.1mb 44f 39f
11:48 5 6 mph 1019.1mb 44f 39f
11:42 3 5 mph 1019.1mb 44f 39f
11:36 3 5 mph 1019.2mb 43f 39f
11:30 5 6 mph 1019.3mb 43f 39f
11:24 5 6 mph 1019.3mb 43f 39f
11:18 5 6 mph 1019.4mb 43f 39f
11:12 5 6 mph 1019.4mb 43f 39f
11:06 3 5 mph 1019.5mb 43f 39f
11:00 5
mph
1019.6mb 43f 39f
10:54 2 3 mph 1019.7mb 43f 39f
10:48 3 5 mph 1019.9mb 43f 38f
10:42 3 5 mph 1020mb 43f 38f
10:36 3
mph
1020.2mb 43f 38f
10:30 5
mph
1020.4mb 43f 38f
10:24 5 6 mph 1020.6mb 43f 38f
10:18 5 6 mph 1020.7mb 43f 38f
10:12 5
mph
1020.9mb 43f 38f
10:06 3
mph
1021mb 43f 38f
10:00 3
mph
1021mb 43f 38f
9:54 2 3 mph 1020.9mb 43f 38f
9:48 3 5 mph 1020.9mb 43f 38f
9:42 2 3 mph 1021mb 43f 38f
9:36 3
mph
1021mb 43f 38f
9:30 3
mph
1020.9mb 43f 38f
9:24 2 3 mph 1021mb 43f 38f
9:18 1 2 mph 1021mb 43f 38f
9:12 1 2 mph 1021mb 43f 38f
9:06 2 3 mph 1020.9mb 43f 38f
9:00 1 2 mph 1020.9mb 43f 38f
8:54 2 3 mph 1020.9mb 43f 38f
8:48 3
mph
1020.8mb 43f 37f
8:42 2 3 mph 1020.7mb 42f 37f
8:36 2 3 mph 1020.7mb 42f 37f
8:30 3
mph
1020.7mb 42f 37f
8:24 3 5 mph 1020.7mb 42f 37f
8:18 3 5 mph 1020.6mb 42f 37f
8:12 2 3 mph 1020.7mb 42f 37f
8:06 3 5 mph 1020.7mb 42f 37f
8:00 5 6 mph 1020.5mb 42f 37f
7:54 5 6 mph 1020.5mb 42f 37f
7:48 5 6 mph 1020.5mb 42f 37f
7:42 3 5 mph 1020.6mb 42f 37f
7:36 5
mph
1020.6mb 42f 37f
7:30 5 6 mph 1020.6mb 42f 37f
7:24 6
mph
1020.6mb 42f 37f
7:18 5 6 mph 1020.7mb 42f 36f
7:12 5 7 mph 1020.6mb 42f 37f
7:06 6 7 mph 1020.5mb 42f 37f
7:00 5 7 mph 1020.6mb 42f 37f
6:54 6
mph
1020.6mb 42f 37f
6:48 3 5 mph 1020.6mb 42f 37f
6:42 5
mph
1020.5mb 42f 37f
6:36 2 3 mph 1020.4mb 42f 37f
6:30 2 5 mph 1020.4mb 42f 38f
6:24 5 6 mph 1020.2mb 42f 38f
6:12 5 7 mph 1020.2mb 42f 37f
6:06 5 6 mph 1020.3mb 42f 38f
6:00 5 7 mph 1020.3mb 42f 37f
5:54 6 7 mph 1020.3mb 42f 37f
5:48 2 7 mph 1020.3mb 42f 37f
5:42 5 6 mph 1020.3mb 42f 36f
5:36  -  7 mph 1020.3mb 42f 37f
5:30 7 9 mph 1020.2mb 42f 37f
5:24 8 9 mph 1020.1mb 42f 37f
5:18 9
mph
1019.9mb 42f 37f
5:12 8 9 mph 1019.8mb 42f 37f
5:06 10
mph
1019.7mb 42f 36f
5:00 7 9 mph 1019.7mb 43f 35f
4:54 8 9 mph 1019.8mb 43f 36f
4:48 3 5 mph 1020mb 43f 35f
4:42 3 5 mph 1020.1mb 43f 35f
4:36 5 6 mph 1020.2mb 44f 35f
4:24 6
mph
1020.3mb 44f 35f
4:18 6
mph
1020.4mb 44f 35f
4:12 6 7 mph 1020.5mb 44f 35f
4:06 6 7 mph 1020.5mb 44f 35f
4:00 6
mph
1020.6mb 44f 35f
3:54 6
mph
1020.7mb 44f 35f
3:48 5 6 mph 1020.7mb 44f 35f
3:42 6
mph
1020.7mb 44f 35f
3:36 6
mph
1020.8mb 44f 35f
3:30 6 7 mph 1020.7mb 44f 35f
3:24 6 7 mph 1020.8mb 44f 35f
3:18 7
mph
1020.7mb 44f 35f
3:12 6 7 mph 1020.8mb 44f 35f
3:06 5 6 mph 1020.8mb 44f 35f
3:00 5 6 mph 1020.7mb 44f 35f
2:54 5 6 mph 1020.8mb 44f 35f
2:48 5
mph
1020.8mb 44f 35f
2:42 3 5 mph 1020.9mb 44f 35f
2:36 3
mph
1020.9mb 44f 35f
2:30 2 3 mph 1020.9mb 44f 35f
2:24 2 3 mph 1021mb 44f 35f
2:18 2 3 mph 1021mb 44f 35f
2:12  -  3 mph 1020.9mb 44f 35f
2:06 2 3 mph 1020.9mb 44f 35f
2:00 2 3 mph 1020.9mb 44f 35f
1:54 2 3 mph 1020.9mb 44f 35f
1:48 2 5 mph 1020.8mb 44f 35f
1:42 5 6 mph 1020.8mb 44f 35f
1:36 5 6 mph 1020.8mb 44f 34f
1:30 5 6 mph 1020.8mb 44f 34f
1:24 5 6 mph 1020.8mb 44f 34f
1:18 3 5 mph 1020.8mb 45f 35f
1:12 2
mph
1020.8mb 45f 35f
1:06 2
mph
1020.7mb 45f 35f
1:00 2 3 mph 1020.7mb 45f 35f
12:54 3 5 mph 1020.6mb 45f 34f
12:48 3 5 mph 1020.6mb 45f 35f
12:42 5
mph
1020.6mb 45f 35f
12:36 5 6 mph 1020.7mb 45f 35f
12:30 5 6 mph 1020.8mb 45f 35f
12:24 6
mph
1020.8mb 45f 35f
12:18 6 7 mph 1020.8mb 45f 34f
12:12 6 7 mph 1020.9mb 45f 34f
12:06 6 7 mph 1020.9mb 45f 34f
12:00 6
mph
1020.9mb 45f 35f
Seg 12/15 11:54 5 6 mph 1020.7mb 45f 34f
11:48 5 6 mph 1020.7mb 45f 35f
11:42 5 6 mph 1020.6mb 45f 35f
11:36 5
mph
1020.6mb 45f 35f
11:30 5
mph
1020.5mb 45f 35f
11:24 5
mph
1020.4mb 45f 35f
11:18 5
mph
1020.5mb 45f 35f
11:12 5 6 mph 1020.5mb 45f 35f
11:06 5
mph
1020.7mb 45f 34f
11:00 5 6 mph 1020.7mb 44f 35f
10:54 3 5 mph 1020.6mb 44f 35f
10:48 3
mph
1020.5mb 44f 35f
10:42 3 5 mph 1020.5mb 44f 35f
10:36 2 3 mph 1020.5mb 44f 36f
10:30  -  1 mph 1020.5mb 44f 37f
10:24  -  1 mph 1020.5mb 44f 37f
10:18  -  1 mph 1020.5mb 44f 37f
10:12 1 2 mph 1020.4mb 44f 37f
10:06  -  1 mph 1020.4mb 44f 37f
10:00  -  2 mph 1020.4mb 44f 37f
9:54 1 2 mph 1020.5mb 44f 37f
9:48 2 3 mph 1020.4mb 44f 37f
9:42 3 5 mph 1020.3mb 44f 37f
9:36 5 6 mph 1020.3mb 44f 37f
9:30 5 6 mph 1020.2mb 44f 37f
9:24 5
mph
1020.2mb 44f 38f
9:18 3 5 mph 1020.3mb 44f 38f
9:12 3 5 mph 1020.3mb 44f 38f
9:06 5
mph
1020.3mb 44f 38f
9:00 3 5 mph 1020.2mb 44f 39f
8:54 5
mph
1020.2mb 44f 39f
8:48 5
mph
1020.3mb 44f 39f
8:42 5 6 mph 1020.3mb 44f 39f
8:36 6 7 mph 1020.3mb 44f 38f
8:30 7
mph
1020.4mb 44f 38f
8:24 7 8 mph 1020.5mb 44f 38f
8:18 7 8 mph 1020.5mb 44f 38f
8:12 7 8 mph 1020.5mb 44f 38f
8:06 7 8 mph 1020.4mb 44f 38f
8:00 5 6 mph 1020.5mb 44f 38f
7:54 2 3 mph 1020.5mb 44f 38f
7:48  -  mph 1020.5mb 44f 38f
7:42  -  mph 1020.4mb 44f 38f
7:36  -  1 mph 1020.3mb 44f 38f
7:30  -  1 mph 1020.3mb 44f 38f
7:24  -  1 mph 1020.3mb 44f 38f
7:18  -  2 mph 1020.2mb 44f 39f
7:12  -  2 mph 1020mb 44f 38f
7:06 2 3 mph 1020mb 44f 38f
7:00 3 6 mph 1019.9mb 44f 38f
6:54 6 7 mph 1019.9mb 44f 38f
6:48 6 8 mph 1019.8mb 44f 39f
6:42 8 10 mph 1019.7mb 44f 39f
6:36 9 10 mph 1019.6mb 44f 40f
6:30 7 8 mph 1019.5mb 44f 40f
6:24 7 8 mph 1019.5mb 44f 40f
6:18 7
mph
1019.5mb 44f 40f
6:12 6 7 mph 1019.5mb 44f 40f
6:06 7 8 mph 1019.3mb 44f 40f
6:00 7 8 mph 1019.2mb 44f 40f
5:54 7 8 mph 1019mb 44f 40f
5:48 5 6 mph 1018.9mb 44f 40f
5:42 1
mph
1018.9mb 44f 41f
5:36  -  2 mph 1018.8mb 44f 41f
5:30 2
mph
1018.6mb 44f 41f
5:24 2
mph
1018.6mb 44f 41f
5:18 2 3 mph 1018.5mb 44f 41f
5:12 3 5 mph 1018.4mb 44f 41f
5:06 5
mph
1018.3mb 44f 41f
5:00 5 6 mph 1018.2mb 44f 41f
4:54 5 6 mph 1018.2mb 44f 41f
4:48 5 6 mph 1018mb 44f 41f
4:42 6
mph
1018mb 44f 41f
4:36 5 6 mph 1018mb 44f 41f
4:30 6
mph
1017.9mb 44f 41f
4:24 6
mph
1017.9mb 44f 41f
4:18 5
mph
1017.9mb 44f 42f
4:12 5 6 mph 1017.9mb 44f 42f
4:06 5
mph
1017.8mb 44f 42f
4:00 5
mph
1017.8mb 44f 42f
3:54 5
mph
1017.7mb 44f 42f
3:48 5 6 mph 1017.6mb 44f 42f
3:42 5 6 mph 1017.5mb 44f 42f
3:36 5 6 mph 1017.5mb 44f 42f
3:30 6
mph
1017.4mb 44f 42f
3:24 3 6 mph 1017.3mb 45f 43f
3:18 5
mph
1017.2mb 45f 42f
3:12 6 8 mph 1017.2mb 45f 42f
3:06 7
mph
1017.3mb 45f 42f
3:00 1 3 mph 1017.2mb 45f 46f
2:54  -  2 mph 1017.2mb 45f 49f
2:48 2 3 mph 1017.3mb 45f 44f
2:42 2
mph
1017.2mb 45f 44f
2:36  -  3 mph 1017.2mb 45f 45f
2:30 2 3 mph 1017.2mb 45f 43f
2:24 3
mph
1017.2mb 45f 43f
2:18 2 3 mph 1017.1mb 45f 42f
2:12 2 3 mph 1017mb 45f 43f
2:06 3 5 mph 1016.9mb 45f 43f
2:00 3
mph
1016.9mb 45f 43f
1:54 2 3 mph 1016.9mb 45f 43f
1:48 3 5 mph 1016.8mb 45f 43f
1:42 6 7 mph 1016.7mb 45f 42f
1:36 7
mph
1016.7mb 45f 42f
1:30 7
mph
1016.7mb 45f 42f
1:24 6
mph
1016.7mb 45f 41f
1:18 6
mph
1016.7mb 45f 41f
1:12 6 7 mph 1016.6mb 45f 41f
1:06 6
mph
1016.6mb 45f 41f
1:00 6 7 mph 1016.7mb 45f 41f
12:54 6 8 mph 1016.8mb 45f 41f
12:48 7 8 mph 1016.9mb 45f 41f
12:42 7 8 mph 1016.9mb 45f 41f
12:36 7
mph
1016.8mb 45f 40f
12:30 7 9 mph 1016.8mb 45f 40f
12:24 7 8 mph 1016.8mb 45f 40f
12:18 7 8 mph 1016.9mb 45f 40f
12:12 6 7 mph 1016.9mb 44f 40f
12:06 7 9 mph 1016.9mb 44f 40f
12:00 8 9 mph 1016.9mb 44f 39f
11:54 8
mph
1016.9mb 44f 39f
11:48 8
mph
1016.9mb 44f 39f
11:42 7 8 mph 1016.9mb 44f 39f
11:36 7 9 mph 1016.9mb 44f 39f
11:30 8 9 mph 1017mb 44f 39f
11:24 9
mph
1017mb 44f 38f
11:18 8 9 mph 1017mb 44f 38f
11:12 7 9 mph 1017mb 44f 39f
11:06 7 9 mph 1016.9mb 44f 40f
11:00 7 8 mph 1016.9mb 44f 42f
10:54 7 9 mph 1017mb 43f 42f
10:48 9 11 mph 1017mb 43f 40f
10:42 9 10 mph 1017mb 43f 41f
10:36 9 14 mph 1017.1mb 43f 41f
10:30 9 13 mph 1017.1mb 44f 41f
10:24 9 13 mph 1017.2mb 44f 41f
10:18 9 11 mph 1017.2mb 44f 41f
10:12 6 8 mph 1017.3mb 44f 40f
10:06 6 8 mph 1017.3mb 44f 40f
10:00 6 8 mph 1017.3mb 44f 38f
9:54 7 9 mph 1017.3mb 44f 38f
9:48 8 9 mph 1017.3mb 44f 38f
9:42 6 7 mph 1017.3mb 44f 38f
9:36 6 7 mph 1017.3mb 44f 38f
9:30 6
mph
1017.3mb 44f 38f
9:24 2 5 mph 1017.3mb 44f 39f
9:18 3 5 mph 1017.3mb 44f 38f
9:12 3 5 mph 1017.2mb 44f 36f
9:06 2 5 mph 1017.1mb 43f 35f
9:00 5 6 mph 1017.1mb 43f 35f
8:54 5 6 mph 1017.1mb 43f 34f
8:48 5
mph
1017.1mb 43f 34f
8:42 5 6 mph 1017mb 43f 34f
8:36 3 5 mph 1016.9mb 43f 34f
8:30 3 6 mph 1016.8mb 43f 34f
8:24 3 5 mph 1016.8mb 43f 34f
8:18 3 5 mph 1016.7mb 43f 34f
8:12 3 5 mph 1016.7mb 43f 33f
8:06 3 5 mph 1016.6mb 43f 33f
8:00 3 6 mph 1016.5mb 43f 33f
7:54 5 6 mph 1016.3mb 43f 32f
7:48 6 7 mph 1016.3mb 43f 32f
7:42 6 7 mph 1016.2mb 43f 32f
7:36 6 7 mph 1016.1mb 42f 31f
7:30 6
mph
1016mb 42f 31f
7:24 5 6 mph 1015.9mb 42f 32f
7:18 5
mph
1015.8mb 42f 32f
7:12 3 5 mph 1015.7mb 42f 32f
7:06 3
mph
1015.6mb 42f 32f
7:00 2 3 mph 1015.6mb 42f 32f
6:54 3 5 mph 1015.6mb 42f 32f
6:48 3
mph
1015.6mb 42f 33f
6:42 3
mph
1015.6mb 42f 33f
6:36 3 5 mph 1015.6mb 42f 33f
6:30 5
mph
1015.5mb 42f 33f
6:24 5 7 mph 1015.6mb 42f 33f
6:18 6 7 mph 1015.5mb 42f 33f
6:12 6
mph
1015.4mb 42f 33f
6:06 5
mph
1015.3mb 42f 32f
6:00 3 5 mph 1015.3mb 42f 32f
5:54 3 6 mph 1015.2mb 42f 32f
5:48 3 6 mph 1015.1mb 42f 32f
5:42 5 6 mph 1015mb 42f 32f
5:36 5 6 mph 1014.9mb 42f 33f
5:30 5 6 mph 1014.8mb 42f 33f
5:24 6
mph
1014.8mb 42f 33f
5:18 6 7 mph 1014.8mb 42f 33f
5:12 6 7 mph 1014.8mb 42f 33f
5:06 6
mph
1014.7mb 42f 33f
5:00 6
mph
1014.6mb 42f 33f
4:54 6
mph
1014.6mb 42f 32f
4:48 5 6 mph 1014.6mb 42f 32f
4:42 5 6 mph 1014.5mb 42f 32f
4:36 5
mph
1014.5mb 42f 32f
4:30 3 5 mph 1014.4mb 42f 33f
4:24 5
mph
1014.3mb 42f 33f
4:18 5 6 mph 1014.4mb 42f 33f
4:12 6
mph
1014.4mb 42f 33f
4:06 6
mph
1014.3mb 43f 33f
4:00 5 6 mph 1014.3mb 43f 33f
3:54 6 7 mph 1014.3mb 43f 33f
3:48 6 8 mph 1014.2mb 43f 34f
3:42 6 7 mph 1014.1mb 43f 34f
3:36 6 8 mph 1014.1mb 43f 34f
3:30 6 8 mph 1014.1mb 43f 34f
3:24 7 9 mph 1014mb 43f 34f
3:18 7 8 mph 1014mb 43f 34f
3:12 7 9 mph 1013.9mb 43f 34f
3:06 8 9 mph 1013.9mb 43f 34f
3:00 7 8 mph 1013.8mb 43f 35f
2:54 8 9 mph 1013.7mb 43f 35f
2:48 8 10 mph 1013.7mb 44f 35f
2:42 8 9 mph 1013.7mb 44f 35f
2:36 8 10 mph 1013.7mb 44f 35f
2:30 8 9 mph 1013.7mb 44f 35f
2:24 7 8 mph 1013.7mb 44f 34f
2:18 7 9 mph 1013.7mb 44f 34f
2:12 7 9 mph 1013.7mb 44f 34f
2:06 8 9 mph 1013.6mb 44f 34f
2:00 8 9 mph 1013.6mb 44f 34f
1:54 7 8 mph 1013.4mb 44f 35f
1:48 7 8 mph 1013.4mb 44f 35f
1:42 6 7 mph 1013.3mb 44f 35f